createdAt,value
2018-05-12T00:00:01.519Z,16.04
2018-05-12T00:01:01.772Z,16.01
2018-05-12T00:02:01.778Z,16.01
2018-05-12T00:03:01.528Z,15.96
2018-05-12T00:04:01.520Z,15.94
2018-05-12T00:05:01.815Z,15.97
2018-05-12T00:06:01.930Z,15.92
2018-05-12T00:07:01.744Z,15.93
2018-05-12T00:08:01.761Z,15.92
2018-05-12T00:09:01.736Z,15.94
2018-05-12T00:10:01.474Z,15.96
2018-05-12T00:11:01.492Z,15.93
2018-05-12T00:12:01.714Z,15.92
2018-05-12T00:13:01.219Z,16
2018-05-12T00:14:01.714Z,16
2018-05-12T00:15:01.922Z,16.01
2018-05-12T00:16:01.683Z,15.96
2018-05-12T00:17:01.689Z,15.94
2018-05-12T00:18:01.711Z,16
2018-05-12T00:19:01.716Z,16.07
2018-05-12T00:20:01.702Z,15.97
2018-05-12T00:21:01.669Z,16.02
2018-05-12T00:22:01.669Z,15.96
2018-05-12T00:23:01.688Z,16.01
2018-05-12T00:24:01.395Z,15.96
2018-05-12T00:25:01.411Z,15.93
2018-05-12T00:26:01.381Z,15.97
2018-05-12T00:27:01.665Z,16
2018-05-12T00:28:01.632Z,16.01
2018-05-12T00:29:01.396Z,16.07
2018-05-12T00:30:01.632Z,16.02
2018-05-12T00:31:01.389Z,16.08
2018-05-12T00:32:01.610Z,15.94
2018-05-12T00:33:01.615Z,16
2018-05-12T00:34:01.616Z,15.96
2018-05-12T00:35:01.623Z,16
2018-05-12T00:36:01.634Z,16
2018-05-12T00:37:01.583Z,15.94
2018-05-12T00:38:01.328Z,15.9
2018-05-12T00:39:01.575Z,15.93
2018-05-12T00:40:01.594Z,15.89
2018-05-12T00:41:01.309Z,15.87
2018-05-12T00:42:01.587Z,15.83
2018-05-12T00:43:01.423Z,15.83
2018-05-12T00:44:01.576Z,15.84
2018-05-12T00:45:01.539Z,15.86
2018-05-12T00:46:01.302Z,15.86
2018-05-12T00:47:01.528Z,15.87
2018-05-12T00:48:01.554Z,15.83
2018-05-12T00:49:01.523Z,15.84
2018-05-12T00:50:01.016Z,15.84
2018-05-12T00:51:01.547Z,15.76
2018-05-12T00:52:01.544Z,15.78
2018-05-12T00:53:01.503Z,15.71
2018-05-12T00:54:01.516Z,15.68
2018-05-12T00:55:01.491Z,15.67
2018-05-12T00:56:01.516Z,15.59
2018-05-12T00:57:01.488Z,15.51
2018-05-12T00:58:01.250Z,15.53
2018-05-12T00:59:01.213Z,15.43
2018-05-12T01:00:01.495Z,15.44
2018-05-12T01:01:01.462Z,15.41
2018-05-12T01:02:01.484Z,15.35
2018-05-12T01:03:01.447Z,15.29
2018-05-12T01:04:01.475Z,15.25
2018-05-12T01:05:01.549Z,15.19
2018-05-12T01:06:01.447Z,15.21
2018-05-12T01:07:01.174Z,15.01
2018-05-12T01:08:01.432Z,15.02
2018-05-12T01:09:01.188Z,14.95
2018-05-12T01:10:01.436Z,14.92
2018-05-12T01:11:01.177Z,14.88
2018-05-12T01:12:01.142Z,14.84
2018-05-12T01:13:01.161Z,14.8
2018-05-12T01:14:00.897Z,14.78
2018-05-12T01:15:01.377Z,14.7
2018-05-12T01:16:01.152Z,14.7
2018-05-12T01:17:01.365Z,14.61
2018-05-12T01:18:01.381Z,14.68
2018-05-12T01:19:01.358Z,14.55
2018-05-12T01:20:01.127Z,14.6
2018-05-12T01:21:01.373Z,14.51
2018-05-12T01:22:01.364Z,14.54
2018-05-12T01:23:01.331Z,14.55
2018-05-12T01:24:00.823Z,14.47
2018-05-12T01:25:01.094Z,14.52
2018-05-12T01:26:01.334Z,14.46
2018-05-12T01:27:01.344Z,14.43
2018-05-12T01:28:01.302Z,14.33
2018-05-12T01:29:01.329Z,14.27
2018-05-12T01:30:01.297Z,14.28
2018-05-12T01:31:01.337Z,14.27
2018-05-12T01:32:01.035Z,14.35
2018-05-12T01:33:01.137Z,14.27
2018-05-12T01:34:01.284Z,14.21
2018-05-12T01:35:01.300Z,14.22
2018-05-12T01:36:01.262Z,14.21
2018-05-12T01:37:01.256Z,14.14
2018-05-12T01:38:01.260Z,14.14
2018-05-12T01:39:01.283Z,14.2
2018-05-12T01:40:00.984Z,14.21
2018-05-12T01:41:01.255Z,14.15
2018-05-12T01:42:01.240Z,14.15
2018-05-12T01:43:01.247Z,14.09
2018-05-12T01:44:01.209Z,14.03
2018-05-12T01:45:00.973Z,14.07
2018-05-12T01:46:01.195Z,14.04
2018-05-12T01:47:01.223Z,14.1
2018-05-12T01:48:00.929Z,13.96
2018-05-12T01:49:01.213Z,13.92
2018-05-12T01:50:00.933Z,13.92
2018-05-12T01:51:01.197Z,13.88
2018-05-12T01:52:01.162Z,13.89
2018-05-12T01:53:01.160Z,13.87
2018-05-12T01:54:01.164Z,13.84
2018-05-12T01:55:01.177Z,13.87
2018-05-12T01:56:01.172Z,13.7
2018-05-12T01:57:00.882Z,13.79
2018-05-12T01:58:01.236Z,13.73
2018-05-12T01:59:01.128Z,13.77
2018-05-12T02:00:00.888Z,13.7
2018-05-12T02:01:01.107Z,13.7
2018-05-12T02:02:01.132Z,13.7
2018-05-12T02:03:01.088Z,13.7
2018-05-12T02:04:01.116Z,13.63
2018-05-12T02:05:01.088Z,13.66
2018-05-12T02:06:00.831Z,13.66
2018-05-12T02:07:01.100Z,13.63
2018-05-12T02:08:01.058Z,13.62
2018-05-12T02:09:00.807Z,13.63
2018-05-12T02:10:00.815Z,13.64
2018-05-12T02:11:00.821Z,13.64
2018-05-12T02:12:00.554Z,13.55
2018-05-12T02:13:01.040Z,13.63
2018-05-12T02:14:00.777Z,13.55
2018-05-12T02:15:01.021Z,13.42
2018-05-12T02:16:01.043Z,13.51
2018-05-12T02:17:01.004Z,13.41
2018-05-12T02:18:01.032Z,13.46
2018-05-12T02:19:00.991Z,13.44
2018-05-12T02:20:01.016Z,13.33
2018-05-12T02:21:00.990Z,13.38
2018-05-12T02:22:00.997Z,13.33
2018-05-12T02:23:00.966Z,13.39
2018-05-12T02:24:00.997Z,13.38
2018-05-12T02:25:00.979Z,13.38
2018-05-12T02:26:00.705Z,13.39
2018-05-12T02:27:00.683Z,13.33
2018-05-12T02:28:00.931Z,13.39
2018-05-12T02:29:00.951Z,13.29
2018-05-12T02:30:00.936Z,13.38
2018-05-12T02:31:00.655Z,13.3
2018-05-12T02:32:00.678Z,13.3
2018-05-12T02:33:00.910Z,13.33
2018-05-12T02:34:00.939Z,13.42
2018-05-12T02:35:00.886Z,13.39
2018-05-12T02:36:00.925Z,13.36
2018-05-12T02:37:00.882Z,13.36
2018-05-12T02:38:00.892Z,13.29
2018-05-12T02:39:00.858Z,13.29
2018-05-12T02:40:00.904Z,13.3
2018-05-12T02:41:00.624Z,13.23
2018-05-12T02:42:00.868Z,13.22
2018-05-12T02:43:00.829Z,13.22
2018-05-12T02:44:00.826Z,13.3
2018-05-12T02:45:00.593Z,13.28
2018-05-12T02:46:00.841Z,13.29
2018-05-12T02:47:00.588Z,13.23
2018-05-12T02:48:00.542Z,13.29
2018-05-12T02:49:00.816Z,13.23
2018-05-12T02:50:00.793Z,13.25
2018-05-12T02:51:00.873Z,13.25
2018-05-12T02:52:00.777Z,13.22
2018-05-12T02:53:00.283Z,13.3
2018-05-12T02:54:00.770Z,13.3
2018-05-12T02:55:00.785Z,13.23
2018-05-12T02:56:00.758Z,13.26
2018-05-12T02:57:00.794Z,13.38
2018-05-12T02:58:00.752Z,13.22
2018-05-12T02:59:00.472Z,13.36
2018-05-12T03:00:00.466Z,13.41
2018-05-12T03:01:00.491Z,13.39
2018-05-12T03:02:00.480Z,13.38
2018-05-12T03:03:00.732Z,13.44
2018-05-12T03:04:00.691Z,13.46
2018-05-12T03:05:00.204Z,13.41
2018-05-12T03:06:00.681Z,13.44
2018-05-12T03:07:00.706Z,13.41
2018-05-12T03:08:00.670Z,13.42
2018-05-12T03:09:00.693Z,13.45
2018-05-12T03:10:00.666Z,13.52
2018-05-12T03:11:00.700Z,13.55
2018-05-12T03:12:00.637Z,13.59
2018-05-12T03:13:00.635Z,13.63
2018-05-12T03:14:00.638Z,13.63
2018-05-12T03:15:00.656Z,13.6
2018-05-12T03:16:00.648Z,13.69
2018-05-12T03:17:00.614Z,13.7
2018-05-12T03:18:00.613Z,13.73
2018-05-12T03:19:00.338Z,13.75
2018-05-12T03:20:00.622Z,13.79
2018-05-12T03:21:00.329Z,13.78
2018-05-12T03:22:00.333Z,13.78
2018-05-12T03:23:00.600Z,13.71
2018-05-12T03:24:00.564Z,13.91
2018-05-12T03:25:00.586Z,13.82
2018-05-12T03:26:00.560Z,13.89
2018-05-12T03:27:00.575Z,13.88
2018-05-12T03:28:00.534Z,13.95
2018-05-12T03:29:00.531Z,13.88
2018-05-12T03:30:00.534Z,13.87
2018-05-12T03:31:00.549Z,13.95
2018-05-12T03:32:00.550Z,13.89
2018-05-12T03:33:00.595Z,14.02
2018-05-12T03:34:00.260Z,13.96
2018-05-12T03:35:00.265Z,13.97
2018-05-12T03:36:00.495Z,14.02
2018-05-12T03:37:00.505Z,14.09
2018-05-12T03:38:00.476Z,14.06
2018-05-12T03:39:00.502Z,14.15
2018-05-12T03:40:00.204Z,14.14
2018-05-12T03:41:00.230Z,14.12
2018-05-12T03:42:00.211Z,14.2
2018-05-12T03:43:00.474Z,14.14
2018-05-12T03:44:00.442Z,14.21
2018-05-12T03:45:00.441Z,14.12
2018-05-12T03:46:00.186Z,14.14
2018-05-12T03:47:00.452Z,14.15
2018-05-12T03:48:00.405Z,14.18
2018-05-12T03:49:00.452Z,14.22
2018-05-12T03:50:00.416Z,14.22
2018-05-12T03:51:00.430Z,14.29
2018-05-12T03:52:00.388Z,14.28
2018-05-12T03:53:00.412Z,14.35
2018-05-12T03:54:00.375Z,14.32
2018-05-12T03:55:00.401Z,14.32
2018-05-12T03:56:00.371Z,14.25
2018-05-12T03:57:00.396Z,14.35
2018-05-12T03:58:00.113Z,14.4
2018-05-12T03:59:00.377Z,14.39
2018-05-12T04:00:00.204Z,14.42
2018-05-12T04:01:00.084Z,14.43
2018-05-12T04:02:00.343Z,14.45
2018-05-12T04:02:59.841Z,14.47
2018-05-12T04:04:00.087Z,14.42
2018-05-12T04:05:00.317Z,14.55
2018-05-12T04:06:00.317Z,14.55
2018-05-12T04:07:00.044Z,14.64
2018-05-12T04:08:00.065Z,14.57
2018-05-12T04:09:00.285Z,14.52
2018-05-12T04:10:00.317Z,14.65
2018-05-12T04:11:00.016Z,14.61
2018-05-12T04:12:00.057Z,14.69
2018-05-12T04:13:00.010Z,14.72
2018-05-12T04:14:00.268Z,14.7
2018-05-12T04:15:00.287Z,14.65
2018-05-12T04:15:59.986Z,14.75
2018-05-12T04:17:00.244Z,14.88
2018-05-12T04:18:00.252Z,14.84
2018-05-12T04:19:00.258Z,14.78
2018-05-12T04:20:00.253Z,14.95
2018-05-12T04:21:00.398Z,14.99
2018-05-12T04:22:00.219Z,15.06
2018-05-12T04:23:00.201Z,15.03
2018-05-12T04:24:00.228Z,15.1
2018-05-12T04:25:00.194Z,15.1
2018-05-12T04:26:00.219Z,15.03
2018-05-12T04:26:59.925Z,15.11
2018-05-12T04:28:00.202Z,15.13
2018-05-12T04:29:00.169Z,15.13
2018-05-12T04:30:00.180Z,15.16
2018-05-12T04:31:00.156Z,15.14
2018-05-12T04:32:00.188Z,15.25
2018-05-12T04:33:00.172Z,15.19
2018-05-12T04:34:00.160Z,15.21
2018-05-12T04:35:00.140Z,15.23
2018-05-12T04:36:00.129Z,15.34
2018-05-12T04:36:59.892Z,15.32
2018-05-12T04:38:00.138Z,15.41
2018-05-12T04:39:00.107Z,15.34
2018-05-12T04:40:00.138Z,15.39
2018-05-12T04:41:00.103Z,15.46
2018-05-12T04:42:00.130Z,15.5
2018-05-12T04:42:59.836Z,15.46
2018-05-12T04:43:59.861Z,15.56
2018-05-12T04:44:59.828Z,15.53
2018-05-12T04:46:00.091Z,15.57
2018-05-12T04:47:00.070Z,15.47
2018-05-12T04:48:00.096Z,15.56
2018-05-12T04:49:00.088Z,15.56
2018-05-12T04:50:00.074Z,15.53
2018-05-12T04:50:59.804Z,15.6
2018-05-12T04:52:00.057Z,15.59
2018-05-12T04:53:00.066Z,15.71
2018-05-12T04:54:00.050Z,15.74
2018-05-12T04:54:59.805Z,15.72
2018-05-12T04:56:00.024Z,15.75
2018-05-12T04:57:00.058Z,15.83
2018-05-12T04:58:00.009Z,15.86
2018-05-12T04:59:00.044Z,15.87
2018-05-12T05:00:00.008Z,15.97
2018-05-12T05:00:59.776Z,16.09
2018-05-12T05:02:00.020Z,16.01
2018-05-12T05:03:00.027Z,16.05
2018-05-12T05:03:59.996Z,16.07
2018-05-12T05:05:00.013Z,16.08
2018-05-12T05:05:59.992Z,16.12
2018-05-12T05:06:59.713Z,16.15
2018-05-12T05:07:59.968Z,16.2
2018-05-12T05:08:59.990Z,16.27
2018-05-12T05:09:59.975Z,16.34
2018-05-12T05:11:00.024Z,16.35
2018-05-12T05:11:59.947Z,16.33
2018-05-12T05:12:59.981Z,16.38
2018-05-12T05:13:59.933Z,16.39
2018-05-12T05:14:59.960Z,16.38
2018-05-12T05:15:59.935Z,16.5
2018-05-12T05:16:59.948Z,16.61
2018-05-12T05:17:59.947Z,16.53
2018-05-12T05:18:59.914Z,16.68
2018-05-12T05:19:59.941Z,16.71
2018-05-12T05:20:59.932Z,16.7
2018-05-12T05:21:59.919Z,16.85
2018-05-12T05:22:59.896Z,16.94
2018-05-12T05:23:59.890Z,17.08
2018-05-12T05:24:59.917Z,17.3
2018-05-12T05:25:59.900Z,17.38
2018-05-12T05:26:59.912Z,17.58
2018-05-12T05:27:59.632Z,17.62
2018-05-12T05:28:59.905Z,17.79
2018-05-12T05:29:59.886Z,17.89
2018-05-12T05:30:59.863Z,18.15
2018-05-12T05:31:59.903Z,18.39
2018-05-12T05:32:59.605Z,18.76
2018-05-12T05:33:59.881Z,18.94
2018-05-12T05:34:59.851Z,19.16
2018-05-12T05:35:59.891Z,19.43
2018-05-12T05:36:59.876Z,19.63
2018-05-12T05:37:59.879Z,19.88
2018-05-12T05:38:59.843Z,20.06
2018-05-12T05:39:59.846Z,20.35
2018-05-12T05:40:59.880Z,20.39
2018-05-12T05:41:59.607Z,20.62
2018-05-12T05:42:59.877Z,20.82
2018-05-12T05:43:59.838Z,21.17
2018-05-12T05:44:59.610Z,21.32
2018-05-12T05:45:59.841Z,21.56
2018-05-12T05:46:59.875Z,21.82
2018-05-12T05:47:59.844Z,22
2018-05-12T05:48:59.875Z,22.22
2018-05-12T05:49:59.857Z,22.49
2018-05-12T05:50:59.881Z,22.52
2018-05-12T05:51:59.850Z,22.75
2018-05-12T05:52:59.853Z,22.85
2018-05-12T05:53:59.608Z,23.05
2018-05-12T05:54:59.629Z,23.2
2018-05-12T05:55:59.854Z,23.54
2018-05-12T05:56:59.889Z,23.9
2018-05-12T05:57:59.882Z,24.18
2018-05-12T05:58:59.902Z,24.4
2018-05-12T05:59:59.880Z,24.68
2018-05-12T06:00:59.911Z,24.95
2018-05-12T06:01:59.884Z,25.2
2018-05-12T06:02:59.926Z,25.38
2018-05-12T06:03:59.896Z,25.51
2018-05-12T06:04:59.669Z,25.61
2018-05-12T06:05:59.918Z,25.88
2018-05-12T06:07:00.230Z,26.07
2018-05-12T06:07:59.910Z,26.29
2018-05-12T06:08:59.921Z,26.58
2018-05-12T06:09:59.936Z,26.77
2018-05-12T06:10:59.965Z,26.99
2018-05-12T06:11:59.712Z,27
2018-05-12T06:12:59.694Z,27.1
2018-05-12T06:13:59.703Z,27.29
2018-05-12T06:14:59.958Z,27.4
2018-05-12T06:15:59.737Z,27.25
2018-05-12T06:16:59.972Z,27.27
2018-05-12T06:18:00.191Z,27.18
2018-05-12T06:18:59.979Z,27.1
2018-05-12T06:20:00.109Z,27.18
2018-05-12T06:20:59.747Z,27.19
2018-05-12T06:22:00.017Z,27.27
2018-05-12T06:23:00.060Z,27.32
2018-05-12T06:24:00.015Z,27.49
2018-05-12T06:25:00.030Z,27.47
2018-05-12T06:26:00.043Z,27.4
2018-05-12T06:26:59.812Z,27.29
2018-05-12T06:28:00.367Z,27.31
2018-05-12T06:29:00.067Z,27.28
2018-05-12T06:30:00.071Z,27.47
2018-05-12T06:30:59.558Z,27.57
2018-05-12T06:32:00.113Z,27.72
2018-05-12T06:32:59.831Z,27.75
2018-05-12T06:34:00.121Z,27.88
2018-05-12T06:34:59.839Z,28.06
2018-05-12T06:36:00.151Z,28.17
2018-05-12T06:37:00.131Z,28.37
2018-05-12T06:38:00.141Z,28.61
2018-05-12T06:38:59.868Z,28.67
2018-05-12T06:40:00.167Z,28.8
2018-05-12T06:41:00.168Z,28.9
2018-05-12T06:42:00.175Z,28.9
2018-05-12T06:43:00.163Z,28.85
2018-05-12T06:44:00.164Z,28.88
2018-05-12T06:45:00.229Z,28.86
2018-05-12T06:45:59.958Z,28.92
2018-05-12T06:47:00.189Z,28.93
2018-05-12T06:48:00.235Z,28.95
2018-05-12T06:49:00.210Z,28.86
2018-05-12T06:50:00.013Z,28.96
2018-05-12T06:51:00.221Z,28.89
2018-05-12T06:52:00.265Z,28.78
2018-05-12T06:53:00.396Z,28.68
2018-05-12T06:54:00.264Z,28.66
2018-05-12T06:55:00.258Z,28.78
2018-05-12T06:56:00.308Z,28.89
2018-05-12T06:57:00.307Z,28.92
2018-05-12T06:58:00.298Z,29.16
2018-05-12T06:59:00.287Z,29.36
2018-05-12T07:00:00.334Z,29.46
2018-05-12T07:01:00.052Z,29.58
2018-05-12T07:02:00.325Z,29.7
2018-05-12T07:03:00.322Z,29.74
2018-05-12T07:04:00.358Z,29.68
2018-05-12T07:05:00.338Z,29.61
2018-05-12T07:06:00.381Z,29.48
2018-05-12T07:07:00.350Z,29.43
2018-05-12T07:08:00.400Z,29.27
2018-05-12T07:09:00.376Z,28.98
2018-05-12T07:10:00.424Z,28.77
2018-05-12T07:11:00.400Z,28.48
2018-05-12T07:12:00.433Z,28.04
2018-05-12T07:13:00.411Z,27.94
2018-05-12T07:14:00.195Z,27.74
2018-05-12T07:15:00.456Z,27.54
2018-05-12T07:16:00.459Z,27.43
2018-05-12T07:17:00.444Z,27.31
2018-05-12T07:18:00.199Z,27.19
2018-05-12T07:19:00.448Z,27.12
2018-05-12T07:20:00.489Z,27.07
2018-05-12T07:21:00.468Z,26.99
2018-05-12T07:22:00.504Z,26.94
2018-05-12T07:23:00.229Z,26.84
2018-05-12T07:24:00.512Z,26.66
2018-05-12T07:25:00.486Z,26.63
2018-05-12T07:26:00.512Z,26.65
2018-05-12T07:27:00.254Z,26.72
2018-05-12T07:28:00.278Z,26.85
2018-05-12T07:29:00.535Z,26.8
2018-05-12T07:30:00.532Z,26.72
2018-05-12T07:31:00.264Z,26.72
2018-05-12T07:32:00.524Z,26.7
2018-05-12T07:33:00.309Z,26.63
2018-05-12T07:34:00.553Z,26.55
2018-05-12T07:35:00.776Z,26.62
2018-05-12T07:36:00.540Z,26.55
2018-05-12T07:37:00.578Z,26.57
2018-05-12T07:38:00.568Z,26.35
2018-05-12T07:39:00.647Z,26.26
2018-05-12T07:40:00.612Z,26.15
2018-05-12T07:41:00.566Z,26.05
2018-05-12T07:42:00.589Z,25.98
2018-05-12T07:43:00.569Z,25.82
2018-05-12T07:44:00.610Z,25.61
2018-05-12T07:45:00.617Z,25.52
2018-05-12T07:46:00.344Z,25.32
2018-05-12T07:47:00.335Z,25.24
2018-05-12T07:48:00.592Z,25.15
2018-05-12T07:49:00.362Z,24.99
2018-05-12T07:50:00.696Z,25
2018-05-12T07:51:00.631Z,24.93
2018-05-12T07:52:00.605Z,24.95
2018-05-12T07:53:00.631Z,24.96
2018-05-12T07:54:00.624Z,24.81
2018-05-12T07:55:00.662Z,24.69
2018-05-12T07:56:00.616Z,24.58
2018-05-12T07:57:00.864Z,24.58
2018-05-12T07:58:00.634Z,24.43
2018-05-12T07:59:00.653Z,24.32
2018-05-12T08:00:00.623Z,24.21
2018-05-12T08:01:00.639Z,24.12
2018-05-12T08:02:00.645Z,24.1
2018-05-12T08:03:00.678Z,24.02
2018-05-12T08:04:00.629Z,23.93
2018-05-12T08:05:00.660Z,23.9
2018-05-12T08:06:00.661Z,23.98
2018-05-12T08:07:00.673Z,24.08
2018-05-12T08:08:00.388Z,24.15
2018-05-12T08:09:00.670Z,24.15
2018-05-12T08:10:00.641Z,24.27
2018-05-12T08:11:00.677Z,24.31
2018-05-12T08:12:00.646Z,24.35
2018-05-12T08:13:00.869Z,24.4
2018-05-12T08:14:00.661Z,24.43
2018-05-12T08:15:00.425Z,24.5
2018-05-12T08:16:00.652Z,24.73
2018-05-12T08:17:00.411Z,24.87
2018-05-12T08:18:00.669Z,24.95
2018-05-12T08:19:00.700Z,24.98
2018-05-12T08:20:00.693Z,24.88
2018-05-12T08:21:00.670Z,24.85
2018-05-12T08:22:00.681Z,24.93
2018-05-12T08:23:00.670Z,24.91
2018-05-12T08:24:00.707Z,24.69
2018-05-12T08:25:00.685Z,24.67
2018-05-12T08:26:00.496Z,24.71
2018-05-12T08:27:00.901Z,24.73
2018-05-12T08:28:00.721Z,24.67
2018-05-12T08:29:00.689Z,24.47
2018-05-12T08:30:00.450Z,24.22
2018-05-12T08:31:00.741Z,24.1
2018-05-12T08:32:00.694Z,24.08
2018-05-12T08:33:00.706Z,24.12
2018-05-12T08:34:00.719Z,24.13
2018-05-12T08:35:00.737Z,24.24
2018-05-12T08:36:00.737Z,24.16
2018-05-12T08:37:00.461Z,24.27
2018-05-12T08:38:00.470Z,24.3
2018-05-12T08:39:00.714Z,24.46
2018-05-12T08:40:00.751Z,24.46
2018-05-12T08:41:00.472Z,24.5
2018-05-12T08:42:00.776Z,24.64
2018-05-12T08:43:00.728Z,24.84
2018-05-12T08:44:00.502Z,24.95
2018-05-12T08:45:00.731Z,25.06
2018-05-12T08:46:00.505Z,25.1
2018-05-12T08:47:00.485Z,25.21
2018-05-12T08:48:00.774Z,25.2
2018-05-12T08:49:00.767Z,25.3
2018-05-12T08:50:00.766Z,25.42
2018-05-12T08:51:00.761Z,25.57
2018-05-12T08:52:00.751Z,25.65
2018-05-12T08:53:00.792Z,25.73
2018-05-12T08:54:00.527Z,25.82
2018-05-12T08:55:00.764Z,25.77
2018-05-12T08:56:00.802Z,25.73
2018-05-12T08:57:00.774Z,25.69
2018-05-12T08:58:00.806Z,25.54
2018-05-12T08:59:00.784Z,25.32
2018-05-12T09:00:00.552Z,25.33
2018-05-12T09:01:00.783Z,25.2
2018-05-12T09:02:00.805Z,25.23
2018-05-12T09:03:00.545Z,25.32
2018-05-12T09:04:00.827Z,25.45
2018-05-12T09:05:00.816Z,25.61
2018-05-12T09:06:00.819Z,25.65
2018-05-12T09:07:00.795Z,25.69
2018-05-12T09:08:00.808Z,25.61
2018-05-12T09:09:00.857Z,25.62
2018-05-12T09:10:00.572Z,25.61
2018-05-12T09:11:00.844Z,25.62
2018-05-12T09:12:00.817Z,25.54
2018-05-12T09:13:00.844Z,25.57
2018-05-12T09:14:00.818Z,25.54
2018-05-12T09:15:00.865Z,25.6
2018-05-12T09:16:00.572Z,25.83
2018-05-12T09:17:00.618Z,25.92
2018-05-12T09:18:00.596Z,26.07
2018-05-12T09:19:00.612Z,26.02
2018-05-12T09:20:00.848Z,26.06
2018-05-12T09:21:00.874Z,26.2
2018-05-12T09:22:00.868Z,26.21
2018-05-12T09:23:00.601Z,26.1
2018-05-12T09:24:00.885Z,26.07
2018-05-12T09:25:00.635Z,26.09
2018-05-12T09:26:00.632Z,26.15
2018-05-12T09:27:00.908Z,26.06
2018-05-12T09:28:00.876Z,26.09
2018-05-12T09:29:00.649Z,25.95
2018-05-12T09:30:00.894Z,25.88
2018-05-12T09:31:00.918Z,25.83
2018-05-12T09:32:00.913Z,25.64
2018-05-12T09:33:00.940Z,25.69
2018-05-12T09:34:00.654Z,25.73
2018-05-12T09:35:00.935Z,25.75
2018-05-12T09:36:00.909Z,25.9
2018-05-12T09:37:00.408Z,25.83
2018-05-12T09:38:00.696Z,25.92
2018-05-12T09:39:00.959Z,26.02
2018-05-12T09:40:00.974Z,26.02
2018-05-12T09:41:00.676Z,26.01
2018-05-12T09:42:00.687Z,26.17
2018-05-12T09:43:00.940Z,26.33
2018-05-12T09:44:00.982Z,26.44
2018-05-12T09:45:00.694Z,26.45
2018-05-12T09:46:00.716Z,26.45
2018-05-12T09:47:00.991Z,26.55
2018-05-12T09:48:00.949Z,26.47
2018-05-12T09:49:00.985Z,26.54
2018-05-12T09:50:00.974Z,26.45
2018-05-12T09:51:00.992Z,26.3
2018-05-12T09:52:00.712Z,26.02
2018-05-12T09:53:00.987Z,25.98
2018-05-12T09:54:00.984Z,25.82
2018-05-12T09:55:01.018Z,25.77
2018-05-12T09:56:01.022Z,25.72
2018-05-12T09:57:00.734Z,25.7
2018-05-12T09:58:00.745Z,25.54
2018-05-12T09:59:00.990Z,25.51
2018-05-12T10:00:01.037Z,25.36
2018-05-12T10:01:01.013Z,25.09
2018-05-12T10:02:00.790Z,24.85
2018-05-12T10:03:01.006Z,24.58
2018-05-12T10:04:00.789Z,24.43
2018-05-12T10:05:01.006Z,24.35
2018-05-12T10:06:01.032Z,24.53
2018-05-12T10:07:01.024Z,24.62
2018-05-12T10:08:01.050Z,24.85
2018-05-12T10:09:01.049Z,25.06
2018-05-12T10:10:01.042Z,25.23
2018-05-12T10:11:00.775Z,25.3
2018-05-12T10:12:01.071Z,25.55
2018-05-12T10:13:00.935Z,25.55
2018-05-12T10:14:01.056Z,25.45
2018-05-12T10:15:01.041Z,25.4
2018-05-12T10:16:01.076Z,25.21
2018-05-12T10:17:01.142Z,25.02
2018-05-12T10:18:01.084Z,24.88
2018-05-12T10:19:01.068Z,24.76
2018-05-12T10:20:01.153Z,24.73
2018-05-12T10:21:01.058Z,24.71
2018-05-12T10:22:01.142Z,24.78
2018-05-12T10:23:00.828Z,24.84
2018-05-12T10:24:01.109Z,24.99
2018-05-12T10:25:01.078Z,25.17
2018-05-12T10:26:01.094Z,25.14
2018-05-12T10:27:01.106Z,25.23
2018-05-12T10:28:01.117Z,25.28
2018-05-12T10:29:01.091Z,25.39
2018-05-12T10:30:01.093Z,25.35
2018-05-12T10:31:01.087Z,25.38
2018-05-12T10:32:01.126Z,25.52
2018-05-12T10:33:00.841Z,25.46
2018-05-12T10:34:01.130Z,25.52
2018-05-12T10:35:01.101Z,25.58
2018-05-12T10:36:00.901Z,25.61
2018-05-12T10:37:01.112Z,25.77
2018-05-12T10:38:00.870Z,25.85
2018-05-12T10:39:01.367Z,25.98
2018-05-12T10:40:01.113Z,26.06
2018-05-12T10:41:00.879Z,26.15
2018-05-12T10:42:01.135Z,26.07
2018-05-12T10:43:00.896Z,26.17
2018-05-12T10:44:00.640Z,26.3
2018-05-12T10:45:00.883Z,26.25
2018-05-12T10:46:01.225Z,26.36
2018-05-12T10:47:01.135Z,26.33
2018-05-12T10:48:00.938Z,26.44
2018-05-12T10:49:01.156Z,26.45
2018-05-12T10:50:01.179Z,26.63
2018-05-12T10:51:01.144Z,26.65
2018-05-12T10:52:00.931Z,26.82
2018-05-12T10:53:01.151Z,26.81
2018-05-12T10:54:01.184Z,26.92
2018-05-12T10:55:01.226Z,26.92
2018-05-12T10:56:01.197Z,26.67
2018-05-12T10:57:01.197Z,26.45
2018-05-12T10:58:00.934Z,26.2
2018-05-12T10:59:00.967Z,26.07
2018-05-12T11:00:00.927Z,26.01
2018-05-12T11:01:01.212Z,25.77
2018-05-12T11:02:01.444Z,25.62
2018-05-12T11:03:01.200Z,25.54
2018-05-12T11:04:01.228Z,25.42
2018-05-12T11:05:01.199Z,25.21
2018-05-12T11:06:01.234Z,25.2
2018-05-12T11:07:01.219Z,25.32
2018-05-12T11:08:00.981Z,25.38
2018-05-12T11:09:00.957Z,25.45
2018-05-12T11:10:01.240Z,25.6
2018-05-12T11:11:01.212Z,25.64
2018-05-12T11:12:01.254Z,25.72
2018-05-12T11:13:01.285Z,25.88
2018-05-12T11:14:00.993Z,26.01
2018-05-12T11:15:01.226Z,26.06
2018-05-12T11:16:01.560Z,26.21
2018-05-12T11:17:01.263Z,26.48
2018-05-12T11:18:01.263Z,26.63
2018-05-12T11:19:01.018Z,26.69
2018-05-12T11:20:01.244Z,26.7
2018-05-12T11:21:01.477Z,26.85
2018-05-12T11:22:01.730Z,26.95
2018-05-12T11:23:01.031Z,27.02
2018-05-12T11:24:01.264Z,27
2018-05-12T11:25:01.304Z,27
2018-05-12T11:26:01.281Z,26.97
2018-05-12T11:27:01.303Z,27
2018-05-12T11:28:01.281Z,27.02
2018-05-12T11:29:01.305Z,26.99
2018-05-12T11:30:01.301Z,26.87
2018-05-12T11:31:01.035Z,26.81
2018-05-12T11:32:00.794Z,26.72
2018-05-12T11:33:01.322Z,26.65
2018-05-12T11:34:01.314Z,26.58
2018-05-12T11:35:01.331Z,26.35
2018-05-12T11:36:01.315Z,26.26
2018-05-12T11:37:01.336Z,26.13
2018-05-12T11:38:01.315Z,26.13
2018-05-12T11:39:01.346Z,26.01
2018-05-12T11:40:01.319Z,25.95
2018-05-12T11:41:01.367Z,25.85
2018-05-12T11:42:01.087Z,25.72
2018-05-12T11:43:01.113Z,25.51
2018-05-12T11:44:01.335Z,25.4
2018-05-12T11:45:01.122Z,25.24
2018-05-12T11:46:01.353Z,25.1
2018-05-12T11:47:01.379Z,25.02
2018-05-12T11:48:01.143Z,24.8
2018-05-12T11:49:01.360Z,24.84
2018-05-12T11:50:01.365Z,24.93
2018-05-12T11:51:01.107Z,25.24
2018-05-12T11:52:01.403Z,25.39
2018-05-12T11:53:01.114Z,25.69
2018-05-12T11:54:01.512Z,26.05
2018-05-12T11:55:01.149Z,26.09
2018-05-12T11:56:01.371Z,26.33
2018-05-12T11:57:01.407Z,26.37
2018-05-12T11:58:01.407Z,26.54
2018-05-12T11:59:01.411Z,26.57
2018-05-12T12:00:01.386Z,26.65
2018-05-12T12:01:01.151Z,26.55
2018-05-12T12:02:01.418Z,26.58
2018-05-12T12:03:01.437Z,26.51
2018-05-12T12:04:01.425Z,26.35
2018-05-12T12:05:01.156Z,25.99
2018-05-12T12:06:01.432Z,25.95
2018-05-12T12:07:01.438Z,25.77
2018-05-12T12:08:01.154Z,25.65
2018-05-12T12:09:01.193Z,25.54
2018-05-12T12:10:01.419Z,25.57
2018-05-12T12:11:01.471Z,25.52
2018-05-12T12:12:01.164Z,25.36
2018-05-12T12:13:01.459Z,25.33
2018-05-12T12:14:00.956Z,25.39
2018-05-12T12:15:00.949Z,25.52
2018-05-12T12:16:01.177Z,25.61
2018-05-12T12:17:01.485Z,25.61
2018-05-12T12:18:01.453Z,25.45
2018-05-12T12:19:01.568Z,25.39
2018-05-12T12:20:01.210Z,25.24
2018-05-12T12:21:01.472Z,25.1
2018-05-12T12:22:01.480Z,25.08
2018-05-12T12:23:01.494Z,25.06
2018-05-12T12:24:01.457Z,25
2018-05-12T12:25:01.483Z,25.06
2018-05-12T12:26:01.460Z,25.1
2018-05-12T12:27:01.493Z,25.06
2018-05-12T12:28:01.471Z,25.05
2018-05-12T12:29:01.612Z,25
2018-05-12T12:30:01.480Z,24.9
2018-05-12T12:31:01.508Z,24.85
2018-05-12T12:32:01.484Z,24.8
2018-05-12T12:33:01.497Z,24.71
2018-05-12T12:34:01.497Z,24.62
2018-05-12T12:35:01.529Z,24.45
2018-05-12T12:36:01.517Z,24.49
2018-05-12T12:37:01.261Z,24.39
2018-05-12T12:38:01.526Z,24.42
2018-05-12T12:39:01.242Z,24.45
2018-05-12T12:40:01.528Z,24.53
2018-05-12T12:41:01.495Z,24.65
2018-05-12T12:42:01.325Z,24.78
2018-05-12T12:43:01.505Z,24.87
2018-05-12T12:44:01.529Z,24.91
2018-05-12T12:45:01.681Z,25
2018-05-12T12:46:01.522Z,25.05
2018-05-12T12:47:01.552Z,25.05
2018-05-12T12:48:01.523Z,25.23
2018-05-12T12:49:01.518Z,25.33
2018-05-12T12:50:01.525Z,25.55
2018-05-12T12:51:01.545Z,25.61
2018-05-12T12:52:01.295Z,25.62
2018-05-12T12:53:01.537Z,25.65
2018-05-12T12:54:01.532Z,25.58
2018-05-12T12:55:01.521Z,25.5
2018-05-12T12:56:01.560Z,25.45